Погода Безодницана 2 недели

Минская область, Белоруссия

24 мая-06 июня
  • 24мая
    Сегодня
    +12°
    +26°
    Практически безоблачно
    ВремяПогодаТемператураВлажностьДавлениеВетер, м/сВероятность осадков
    00:00Ясно и безоблачно+16°C80 %749 мм4.2 м/с2 %
    03:00Облачно с прояснениями+14°C67 %750 мм4.8 м/с2 %
    06:00Ясно и безоблачно+13°C65 %750 мм4.7 м/с2 %
    09:00Ясно и безоблачно+18°C62 %751 мм5.0 м/с2 %
    12:00Ясно и безоблачно+22°C56 %752 мм5.3 м/с2 %
    15:00Практически безоблачно+25°C49 %751 мм6.6 м/с2 %
    18:00Практически безоблачно+25°C48 %750 мм5.9 м/с2 %
    21:00Ясно и безоблачно+21°C61 %751 мм4.0 м/с2 %
  • 25мая
    Суббота
    +11°
    +24°
    Облачно с прояснениями
    ВремяПогодаТемператураВлажностьДавлениеВетер, м/сВероятность осадков
    00:00Ясно и безоблачно+16°C66 %751 мм4.4 м/с2 %
    03:00Облачно с прояснениями+14°C65 %751 мм3.8 м/с2 %
    06:00Облачно с прояснениями+13°C68 %751 мм3.7 м/с2 %
    09:00Облачно с прояснениями+18°C62 %751 мм3.5 м/с2 %
    12:00Облачно с прояснениями+23°C54 %751 мм3.9 м/с9 %
    15:00Облачно с прояснениями+23°C59 %750 мм3.8 м/с44 %
    18:00Облачно с прояснениями+24°C47 %750 мм5.1 м/с34 %
    21:00Облачно с прояснениями+17°C81 %749 мм1.7 м/с19 %
  • 26мая
    Воскресенье
    +11°
    +24°
    Небольшая облачность
    ВремяПогодаТемператураВлажностьДавлениеВетер, м/сВероятность осадков
    00:00Облачно с прояснениями+15°C69 %749 мм2.5 м/с5 %
    03:00Облачно с прояснениями+13°C59 %750 мм2.2 м/с3 %
    06:00Практически безоблачно+12°C67 %750 мм2.1 м/с5 %
    09:00Практически безоблачно+18°C57 %750 мм2.1 м/с4 %
    12:00Ясно и безоблачно+22°C35 %751 мм2.9 м/с1 %
    15:00Небольшая облачность+24°C34 %750 мм2.7 м/с2 %
    18:00Облачно с прояснениями+24°C35 %750 мм3.2 м/с2 %
    21:00Ясно и безоблачно+19°C48 %750 мм2.6 м/с2 %
  • 27мая
    Понедельник
    +12°
    +26°
    Облачно с прояснениями
    ВремяПогодаТемператураВлажностьДавлениеВетер, м/сВероятность осадков
    00:00Ясно и безоблачно+15°C58 %750 мм2.5 м/с2 %
    03:00Ясно и безоблачно+12°C71 %750 мм1.7 м/с2 %
    06:00Практически безоблачно+13°C71 %750 мм1.5 м/с2 %
    09:00Облачно с прояснениями+20°C50 %751 мм2.4 м/с2 %
    12:00Небольшая облачность+24°C36 %750 мм3.0 м/с2 %
    15:00Облачно с прояснениями+25°C34 %750 мм3.5 м/с3 %
    18:00Облачно с прояснениями+25°C34 %749 мм3.2 м/с12 %
    21:00Облачно с прояснениями+20°C56 %749 мм2.2 м/с3 %
  • 28мая
    Вторник
    +13°
    +25°
    Небольшая облачность
    ВремяПогодаТемператураВлажностьДавлениеВетер, м/сВероятность осадков
    00:00Ясно и безоблачно+18°C55 %749 мм1.6 м/с2 %
    03:00Ясно и безоблачно+13°C72 %749 мм2.2 м/с2 %
    06:00Ясно и безоблачно+14°C75 %748 мм2.6 м/с2 %
    09:00Ясно и безоблачно+20°C57 %749 мм2.9 м/с2 %
    12:00Ясно и безоблачно+24°C36 %748 мм4.4 м/с6 %
    15:00Небольшая облачность+25°C31 %748 мм4.1 м/с10 %
    18:00Практически безоблачно+25°C35 %747 мм3.8 м/с22 %
    21:00Ясно и безоблачно+21°C53 %747 мм2.4 м/с10 %
Мы используем cookies
Соглашаюсь